Nearby METAR Reports

 

KCOE - Coeur D'alene, Idaho, USA
Distance from station: SSE 4mi, 7km
Updated: Mon, 15-Aug-2022 1:56am PDT
Clear
Clear
 Wind from NE
Wind: NE 6 mph , 9 km/h
Temperature: 55°F , 13°C
Dew Point: 46°F , 8°C
Humidity: 72%
Barometer: 30.07 inHg , 1018.3 hPa
Clouds: Clear
Visibility: 10 miles , 16 km
2022/08/15 08:56 KCOE 150856Z AUTO 05005KT 10SM CLR 13/08 A3007 RMK AO2 SLP184 6//// T01330078 51002 PNO $
KSFF - Spokane/Felts, Washington, USA
Distance from station: WSW 24mi, 39km
Updated: Mon, 15-Aug-2022 1:53am PDT
Clear
Clear
 Wind from NE
Wind: NE 3 mph , 6 km/h
Temperature: 61°F , 16°C
Dew Point: 46°F , 8°C
Humidity: 59%
Barometer: 30.04 inHg , 1017.3 hPa
Clouds: Clear
Visibility: 10 miles , 16 km
2022/08/15 08:53 KSFF 150853Z AUTO 04003KT 10SM CLR 16/08 A3004 RMK AO2 SLP159 T01560078 50002 $
 
KDEW - Deer Park, Washington, USA
Distance from station: WNW 29mi, 47km
Updated: Mon, 15-Aug-2022 1:53am PDT
Clear
Clear
 Wind from calm
Wind: Calm
Temperature: 48°F , 9°C
Dew Point: 39°F , 4°C
Humidity: 71%
Barometer: 30.05 inHg , 1017.6 hPa
Clouds: Clear
Visibility: 10 miles , 16 km
2022/08/15 08:53 KDEW 150853Z AUTO 00000KT 10SM CLR 09/04 A3005 RMK AO2 SLP166 T00940039 50001 $
KSZT - Wall/Sandpoint, Idaho, USA
Distance from station: NNE 35mi, 56km
Updated: Mon, 15-Aug-2022 1:55am PDT
Clear
Clear
 Wind from calm
Wind: Calm
Temperature: 54°F , 12°C
Dew Point: 45°F , 7°C
Humidity: 72%
Barometer: 30.07 inHg , 1018.3 hPa
Clouds: Clear
Visibility: 10 miles , 16 km
2022/08/15 08:55 KSZT 150855Z AUTO 00000KT 10SM CLR 12/07 A3007 RMK AO2
 
KGEG - Spokane/Metro, Washington, USA
Distance from station: WSW 35mi, 57km
Updated: Mon, 15-Aug-2022 1:53am PDT
Clear
Clear
 Wind from SE
Wind: SE 6 mph , 9 km/h
Temperature: 66°F , 19°C
Dew Point: 37°F , 3°C
Humidity: 35%
Barometer: 30.05 inHg , 1017.6 hPa
Clouds: Clear
Visibility: 10 miles , 16 km
2022/08/15 08:53 KGEG 150853Z 14005KT 10SM CLR 19/03 A3005 RMK AO2 SLP158 T01890033 50001 $
KSKA - Fairchild Afb, Washington, USA
Distance from station: WSW 40mi, 65km
Updated: Mon, 15-Aug-2022 12:55am PDT
Clear
Clear
 Wind from W
Wind: W 7 mph , 11 km/h
Temperature: 63°F , 17°C
Dew Point: 34°F , 1°C
Humidity: 34%
Barometer: 30.04 inHg , 1017.3 hPa
Clouds: Clear
Visibility: 10 miles , 16 km
2022/08/15 07:55 KSKA 150755Z 27006KT 10SM CLR 17/01 A3004 RMK A02A SLP161 T01690009 402950119 $